Aeroporto :
LOGIN :

Iscrizione | Disclaimer

   EN    FR    IT 

 










Sommario :    VFR   VFR Marginale   IFR   IFR Intensivo   IFR Molto Intensivo
Visibilità : 
Base nubi : 
>= 8 km
>= 3000ft
5 / 8 km
1000 / 3000 ft
1500m / 5 km
500 / 1000 ft
800 / 1500m
200 / 500 ft
< 800m
< 200 ft
Simboli :   Temporali  Nebbia  Neve Forte  Precipitazioni Forti  Vento > 20 kt
SIGMETs :   Varie  Temporali  Ghiacco  Turbolenza  Onda orograficha  Ceneri Vulcaniche







- Altitudine del aeroporto : 289 ft


LIRG - Guidonia

ULTIMO METAR :
  • 211755Z 26005KT CAVOK 30/15 Q1016 RMK SKC MON NE LIB NC VIS MIN 9999 BLU

METARs OBSOLETI :
  • 211655Z 23006KT CAVOK 31/16 Q1016
  • 211555Z 23006KT 210V270 CAVOK 32/15 Q1016 RMK SKC MON NE LIB NC VIS MIN 9999 BLU

TAF TAF LIRG
Valido dal 21 a 15 ore il 22 a 00 ore UTC


211400Z 2115/2124 26009KT 9999 FEW030
BECMG 2118/2120 VRB03KT
Nessun NOTAM noto per questo aeroporto.



MetMap, La meteo Aeronautica in un colpo d'occhio ! - Copyright ORBIFLY Dicembre 2007 - Disclaimer

ORBIFLY MET'MAP TEAM :

Programmazione e sviluppo : Alexandra Zaïnal
Concezione e sviluppo : Baudouin d'Aumeries
Co-Programmazione e sviluppo : Marc-Olivier Méhu
Supporto tecnico e logistico : Manuel Goepfert
Aiuto per la traduzione : Arnaldo La Scala

Contatto : metmap@orbifly.com




FONTI E CREDITI :

   NOAA